createdAt,value
2019-03-18T00:28:51.314Z,94.60
2019-03-18T00:28:51.882Z,94.23
2019-03-18T00:28:52.482Z,94.32
2019-03-18T00:28:53.081Z,94.51
2019-03-18T00:28:53.682Z,94.51
2019-03-18T00:28:54.284Z,94.13
2019-03-18T00:28:54.961Z,94.23
2019-03-18T00:28:55.483Z,94.32
2019-03-18T00:29:48.963Z,94.13
2019-03-18T00:29:49.536Z,94.32
2019-03-18T00:29:50.135Z,94.23
2019-03-18T00:29:50.736Z,94.13
2019-03-18T00:29:51.334Z,94.03
2019-03-18T00:29:51.990Z,93.84
2019-03-18T00:29:52.536Z,94.23
2019-03-18T00:29:53.133Z,94.03
2019-03-18T00:30:46.615Z,94.60
2019-03-18T00:30:47.192Z,94.51
2019-03-18T00:30:47.791Z,94.60
2019-03-18T00:30:48.387Z,94.60
2019-03-18T00:30:48.987Z,94.89
2019-03-18T00:30:49.590Z,94.98
2019-03-18T00:30:50.186Z,94.89
2019-03-18T00:30:50.790Z,94.70
2019-03-18T00:31:44.266Z,94.98
2019-03-18T00:31:44.840Z,94.60
2019-03-18T00:31:45.441Z,94.89
2019-03-18T00:31:46.039Z,95.07
2019-03-18T00:31:46.640Z,94.89
2019-03-18T00:31:47.239Z,95.07
2019-03-18T00:31:47.845Z,94.51
2019-03-18T00:31:48.438Z,94.60
2019-03-18T00:32:42.941Z,93.37
2019-03-18T00:32:43.516Z,93.27
2019-03-18T00:32:44.117Z,93.27
2019-03-18T00:32:44.715Z,93.27
2019-03-18T00:32:45.315Z,93.37
2019-03-18T00:32:45.918Z,93.18
2019-03-18T00:32:46.517Z,93.46
2019-03-18T00:32:47.116Z,93.08
2019-03-18T00:33:40.594Z,92.99
2019-03-18T00:33:41.172Z,92.99
2019-03-18T00:33:41.774Z,92.99
2019-03-18T00:33:42.368Z,92.99
2019-03-18T00:33:42.967Z,92.99
2019-03-18T00:33:43.567Z,92.90
2019-03-18T00:33:44.168Z,93.08
2019-03-18T00:33:44.768Z,92.71
2019-03-18T00:34:39.269Z,94.23
2019-03-18T00:34:39.846Z,94.03
2019-03-18T00:34:40.444Z,94.03
2019-03-18T00:34:41.043Z,94.32
2019-03-18T00:34:41.644Z,94.13
2019-03-18T00:34:42.244Z,94.13
2019-03-18T00:34:42.844Z,94.32
2019-03-18T00:34:43.442Z,94.32
2019-03-18T00:35:37.948Z,93.65
2019-03-18T00:35:38.519Z,93.56
2019-03-18T00:35:39.120Z,93.46
2019-03-18T00:35:39.720Z,93.56
2019-03-18T00:35:40.319Z,93.75
2019-03-18T00:35:40.922Z,93.46
2019-03-18T00:35:41.520Z,93.08
2019-03-18T00:35:42.121Z,93.46
2019-03-18T00:36:36.621Z,92.90
2019-03-18T00:36:37.203Z,92.99
2019-03-18T00:36:37.796Z,92.99
2019-03-18T00:36:38.395Z,93.08
2019-03-18T00:36:38.997Z,92.52
2019-03-18T00:36:39.594Z,92.90
2019-03-18T00:36:40.195Z,93.46
2019-03-18T00:36:40.795Z,93.37
2019-03-18T00:37:34.274Z,92.80
2019-03-18T00:37:34.849Z,92.80
2019-03-18T00:37:35.448Z,92.99
2019-03-18T00:37:36.048Z,92.99
2019-03-18T00:37:36.649Z,92.99
2019-03-18T00:37:37.247Z,92.99
2019-03-18T00:37:37.848Z,92.90
2019-03-18T00:37:38.449Z,92.99
2019-03-18T00:38:31.927Z,92.99
2019-03-18T00:38:32.499Z,92.99
2019-03-18T00:38:33.100Z,92.80
2019-03-18T00:38:33.700Z,93.08
2019-03-18T00:38:34.320Z,92.61
2019-03-18T00:38:34.901Z,92.80
2019-03-18T00:38:35.498Z,92.90
2019-03-18T00:38:36.099Z,92.90
2019-03-18T00:39:29.578Z,92.23
2019-03-18T00:39:30.154Z,92.42
2019-03-18T00:39:30.753Z,92.23
2019-03-18T00:39:31.354Z,92.52
2019-03-18T00:39:31.953Z,92.33
2019-03-18T00:39:32.552Z,92.33
2019-03-18T00:39:33.158Z,92.04
2019-03-18T00:39:33.752Z,92.33
2019-03-18T00:40:28.315Z,92.80
2019-03-18T00:40:28.829Z,92.99
2019-03-18T00:40:29.428Z,92.33
2019-03-18T00:40:30.029Z,92.99
2019-03-18T00:40:30.628Z,92.42
2019-03-18T00:40:31.226Z,92.61
2019-03-18T00:40:31.828Z,92.52
2019-03-18T00:40:32.426Z,92.90
2019-03-18T00:41:25.907Z,92.90
2019-03-18T00:41:26.481Z,93.08
2019-03-18T00:41:27.081Z,92.80
2019-03-18T00:41:27.681Z,92.99
2019-03-18T00:41:28.280Z,92.90
2019-03-18T00:41:28.912Z,93.08
2019-03-18T00:41:29.480Z,93.08
2019-03-18T00:41:30.080Z,92.99
2019-03-18T00:42:24.584Z,92.80
2019-03-18T00:42:25.156Z,92.80
2019-03-18T00:42:25.755Z,92.80
2019-03-18T00:42:26.358Z,92.99
2019-03-18T00:42:26.956Z,92.99
2019-03-18T00:42:27.554Z,93.08
2019-03-18T00:42:28.154Z,92.99
2019-03-18T00:42:28.756Z,93.08
2019-03-18T00:43:22.233Z,94.23
2019-03-18T00:43:22.808Z,94.51
2019-03-18T00:43:23.407Z,94.23
2019-03-18T00:43:24.011Z,94.42
2019-03-18T00:43:24.607Z,94.42
2019-03-18T00:43:25.207Z,93.75
2019-03-18T00:43:25.808Z,94.51
2019-03-18T00:43:26.469Z,93.75
2019-03-18T00:44:20.911Z,92.80
2019-03-18T00:44:21.487Z,92.80
2019-03-18T00:44:22.147Z,93.27
2019-03-18T00:44:22.684Z,93.27
2019-03-18T00:44:23.283Z,93.18
2019-03-18T00:44:23.884Z,93.46
2019-03-18T00:44:24.484Z,93.37
2019-03-18T00:44:25.083Z,93.46
2019-03-18T00:45:18.566Z,92.99
2019-03-18T00:45:19.134Z,92.99
2019-03-18T00:45:19.736Z,92.99
2019-03-18T00:45:20.347Z,93.37
2019-03-18T00:45:20.988Z,92.99
2019-03-18T00:45:21.537Z,92.99
2019-03-18T00:45:22.163Z,93.08
2019-03-18T00:45:22.732Z,92.90
2019-03-18T00:46:16.213Z,92.42
2019-03-18T00:46:16.787Z,92.42
2019-03-18T00:46:17.387Z,92.61
2019-03-18T00:46:17.992Z,92.04
2019-03-18T00:46:18.589Z,92.52
2019-03-18T00:46:19.188Z,92.04
2019-03-18T00:46:19.787Z,92.33
2019-03-18T00:46:20.386Z,92.23
2019-03-18T00:47:13.865Z,92.14
2019-03-18T00:47:14.438Z,92.14
2019-03-18T00:47:15.037Z,92.23
2019-03-18T00:47:15.640Z,92.14
2019-03-18T00:47:16.237Z,92.23
2019-03-18T00:47:16.837Z,92.14
2019-03-18T00:47:17.462Z,92.33
2019-03-18T00:47:18.038Z,92.14
2019-03-18T00:48:11.518Z,93.27
2019-03-18T00:48:12.091Z,93.18
2019-03-18T00:48:12.691Z,92.99
2019-03-18T00:48:13.292Z,93.18
2019-03-18T00:48:13.892Z,93.18
2019-03-18T00:48:14.490Z,92.80
2019-03-18T00:48:15.089Z,93.18
2019-03-18T00:48:15.690Z,93.18
2019-03-18T00:49:10.192Z,94.03
2019-03-18T00:49:10.766Z,94.03
2019-03-18T00:49:11.365Z,94.03
2019-03-18T00:49:11.964Z,94.23
2019-03-18T00:49:12.631Z,94.23
2019-03-18T00:49:13.164Z,94.03
2019-03-18T00:49:13.764Z,94.03
2019-03-18T00:49:14.366Z,94.23
2019-03-18T00:50:07.843Z,94.13
2019-03-18T00:50:08.419Z,94.32
2019-03-18T00:50:09.019Z,93.75
2019-03-18T00:50:09.617Z,94.51
2019-03-18T00:50:10.227Z,94.51
2019-03-18T00:50:10.819Z,94.51
2019-03-18T00:50:11.416Z,94.51
2019-03-18T00:50:12.017Z,94.70
2019-03-18T00:51:06.521Z,94.32
2019-03-18T00:51:07.095Z,94.03
2019-03-18T00:51:07.697Z,94.03
2019-03-18T00:51:08.294Z,94.32
2019-03-18T00:51:08.894Z,94.23
2019-03-18T00:51:09.492Z,94.42
2019-03-18T00:51:10.092Z,94.32
2019-03-18T00:51:10.694Z,94.42
2019-03-18T00:52:05.195Z,94.60
2019-03-18T00:52:05.767Z,94.79
2019-03-18T00:52:06.368Z,94.89
2019-03-18T00:52:06.969Z,94.89
2019-03-18T00:52:07.569Z,94.79
2019-03-18T00:52:08.167Z,94.89
2019-03-18T00:52:08.768Z,94.89
2019-03-18T00:52:09.367Z,94.60
2019-03-18T00:53:02.849Z,94.89
2019-03-18T00:53:03.421Z,94.89
2019-03-18T00:53:04.030Z,94.70
2019-03-18T00:53:04.622Z,94.60
2019-03-18T00:53:05.220Z,94.89
2019-03-18T00:53:05.826Z,94.60
2019-03-18T00:53:06.424Z,94.98
2019-03-18T00:53:07.020Z,94.60
2019-03-18T00:54:00.498Z,94.03
2019-03-18T00:54:01.073Z,94.03
2019-03-18T00:54:01.675Z,94.13
2019-03-18T00:54:02.273Z,94.03
2019-03-18T00:54:02.875Z,94.03
2019-03-18T00:54:03.472Z,94.13
2019-03-18T00:54:04.073Z,94.13
2019-03-18T00:54:04.672Z,94.23
2019-03-18T00:54:59.176Z,93.75
2019-03-18T00:54:59.747Z,93.46
2019-03-18T00:55:00.369Z,93.46
2019-03-18T00:55:00.947Z,93.37
2019-03-18T00:55:01.548Z,93.37
2019-03-18T00:55:02.153Z,93.46
2019-03-18T00:55:02.750Z,93.37
2019-03-18T00:55:03.350Z,93.37
2019-03-18T00:55:56.826Z,93.56
2019-03-18T00:55:57.400Z,93.56
2019-03-18T00:55:58.000Z,93.46
2019-03-18T00:55:58.601Z,93.56
2019-03-18T00:55:59.201Z,93.65
2019-03-18T00:55:59.800Z,93.56
2019-03-18T00:56:00.401Z,93.56
2019-03-18T00:56:01.001Z,93.56
2019-03-18T00:56:55.505Z,93.37
2019-03-18T00:56:56.077Z,92.80
2019-03-18T00:56:56.675Z,93.27
2019-03-18T00:56:57.274Z,92.99
2019-03-18T00:56:57.876Z,92.99
2019-03-18T00:56:58.474Z,92.99
2019-03-18T00:56:59.078Z,93.46
2019-03-18T00:56:59.675Z,93.46
2019-03-18T00:57:54.179Z,94.32
2019-03-18T00:57:54.752Z,93.84
2019-03-18T00:57:55.351Z,93.94
2019-03-18T00:57:55.953Z,94.51
2019-03-18T00:57:56.552Z,94.42
2019-03-18T00:57:57.151Z,94.42
2019-03-18T00:57:57.752Z,94.70
2019-03-18T00:57:58.349Z,94.70
2019-03-18T00:58:51.829Z,93.56
2019-03-18T00:58:52.405Z,93.56
2019-03-18T00:58:53.010Z,93.75
2019-03-18T00:58:53.604Z,93.65
2019-03-18T00:58:54.204Z,93.94
2019-03-18T00:58:54.804Z,93.84
2019-03-18T00:58:55.403Z,93.65
2019-03-18T00:58:56.004Z,93.65
2019-03-18T00:59:49.480Z,94.03
2019-03-18T00:59:50.056Z,94.03
2019-03-18T00:59:50.655Z,94.32
2019-03-18T00:59:51.256Z,94.23
2019-03-18T00:59:51.856Z,94.23
2019-03-18T00:59:52.455Z,94.51
2019-03-18T00:59:53.141Z,94.23
2019-03-18T00:59:53.654Z,94.32
2019-03-18T01:00:47.133Z,93.27
2019-03-18T01:00:47.706Z,93.18
2019-03-18T01:00:48.307Z,93.27
2019-03-18T01:00:48.907Z,93.18
2019-03-18T01:00:49.506Z,92.80
2019-03-18T01:00:50.107Z,92.99
2019-03-18T01:00:50.707Z,92.99
2019-03-18T01:00:51.306Z,93.46
2019-03-18T01:01:45.810Z,92.99
2019-03-18T01:01:46.382Z,92.99
2019-03-18T01:01:46.983Z,93.08
2019-03-18T01:01:47.583Z,92.90
2019-03-18T01:01:48.181Z,92.99
2019-03-18T01:01:48.781Z,93.08
2019-03-18T01:01:49.380Z,92.99
2019-03-18T01:01:49.983Z,92.80
2019-03-18T01:02:43.460Z,93.27
2019-03-18T01:02:44.037Z,93.27
2019-03-18T01:02:44.635Z,93.18
2019-03-18T01:02:45.233Z,92.99
2019-03-18T01:02:45.838Z,92.99
2019-03-18T01:02:49.257Z,93.27
2019-03-18T01:02:49.515Z,93.27
2019-03-18T01:02:49.566Z,92.99
2019-03-18T01:03:42.136Z,93.27
2019-03-18T01:03:42.709Z,93.18
2019-03-18T01:03:43.309Z,93.46
2019-03-18T01:03:43.949Z,92.99
2019-03-18T01:03:44.509Z,93.08
2019-03-18T01:03:45.108Z,93.08
2019-03-18T01:03:45.709Z,92.99
2019-03-18T01:03:46.308Z,92.99
2019-03-18T01:04:40.811Z,92.99
2019-03-18T01:04:41.386Z,92.99
2019-03-18T01:04:41.985Z,92.80
2019-03-18T01:04:42.585Z,92.80
2019-03-18T01:04:43.185Z,92.80
2019-03-18T01:04:43.785Z,92.71
2019-03-18T01:04:44.384Z,92.80
2019-03-18T01:04:44.985Z,92.71
2019-03-18T01:05:39.489Z,91.28
2019-03-18T01:05:40.059Z,91.38
2019-03-18T01:05:40.661Z,91.38
2019-03-18T01:05:41.261Z,91.19
2019-03-18T01:05:41.859Z,91.47
2019-03-18T01:05:42.461Z,91.28
2019-03-18T01:05:43.059Z,91.38
2019-03-18T01:05:43.660Z,91.38
2019-03-18T01:06:37.139Z,92.33
2019-03-18T01:06:37.714Z,92.04
2019-03-18T01:06:38.314Z,92.33
2019-03-18T01:06:38.915Z,91.85
2019-03-18T01:06:39.513Z,92.23
2019-03-18T01:06:40.114Z,92.23
2019-03-18T01:06:40.713Z,92.04
2019-03-18T01:06:41.321Z,92.14
2019-03-18T01:07:38.784Z,91.94
2019-03-18T01:07:39.363Z,91.94
2019-03-18T01:07:39.957Z,92.14
2019-03-18T01:08:33.468Z,91.00
2019-03-18T01:08:34.042Z,91.56
2019-03-18T01:08:34.641Z,91.56
2019-03-18T01:08:35.240Z,91.47
2019-03-18T01:08:35.840Z,91.56
2019-03-18T01:08:36.443Z,91.47
2019-03-18T01:08:37.040Z,91.47
2019-03-18T01:08:37.643Z,91.38
2019-03-18T01:09:39.616Z,91.00
2019-03-18T01:09:40.190Z,91.38
2019-03-18T01:09:40.791Z,91.38
2019-03-18T01:09:41.390Z,90.52
2019-03-18T01:09:41.993Z,91.09
2019-03-18T01:09:42.591Z,91.47
2019-03-18T01:09:43.190Z,91.19
2019-03-18T01:09:43.791Z,91.09
2019-03-18T01:09:44.390Z,91.00
2019-03-18T01:09:44.988Z,90.90
2019-03-18T01:09:45.588Z,90.90
2019-03-18T01:09:46.187Z,90.90
2019-03-18T01:10:40.238Z,91.75
2019-03-18T01:10:40.813Z,91.56
2019-03-18T01:10:41.411Z,91.66
2019-03-18T01:10:42.011Z,91.66
2019-03-18T01:10:42.612Z,91.56
2019-03-18T01:10:43.211Z,91.38
2019-03-18T01:10:43.810Z,91.75
2019-03-18T01:11:37.797Z,91.75
2019-03-18T01:11:38.362Z,91.75
2019-03-18T01:11:38.961Z,91.85
2019-03-18T01:11:39.562Z,91.75
2019-03-18T01:11:40.161Z,91.85
2019-03-18T01:11:40.761Z,91.66
2019-03-18T01:11:41.360Z,91.28
2019-03-18T01:12:34.824Z,92.23
2019-03-18T01:12:35.399Z,92.23
2019-03-18T01:12:35.999Z,91.85
2019-03-18T01:12:36.599Z,92.33
2019-03-18T01:12:37.201Z,92.23
2019-03-18T01:12:37.799Z,92.23
2019-03-18T01:12:38.412Z,92.14
2019-03-18T01:12:39.012Z,92.04
2019-03-18T01:13:32.476Z,92.99
2019-03-18T01:13:33.052Z,93.08
2019-03-18T01:13:33.652Z,93.08
2019-03-18T01:13:34.251Z,92.99
2019-03-18T01:13:34.851Z,92.99
2019-03-18T01:13:35.450Z,93.18
2019-03-18T01:13:36.052Z,92.99
2019-03-18T01:13:36.651Z,93.08
2019-03-18T01:14:30.128Z,92.99
2019-03-18T01:14:30.704Z,92.99
2019-03-18T01:14:31.303Z,92.80
2019-03-18T01:14:31.967Z,92.80
2019-03-18T01:14:32.503Z,92.52
2019-03-18T01:14:33.104Z,92.80
2019-03-18T01:14:33.703Z,92.71
2019-03-18T01:14:34.303Z,92.80
2019-03-18T01:15:28.705Z,92.04
2019-03-18T01:15:28.864Z,91.94
2019-03-18T01:15:28.955Z,91.94
2019-03-18T01:15:29.553Z,91.94
2019-03-18T01:15:30.156Z,92.14
2019-03-18T01:15:30.754Z,91.75
2019-03-18T01:15:31.352Z,91.94
2019-03-18T01:15:31.956Z,91.94
2019-03-18T01:16:26.456Z,92.80
2019-03-18T01:16:27.034Z,92.42
2019-03-18T01:16:27.630Z,92.99
2019-03-18T01:16:28.236Z,92.42
2019-03-18T01:16:28.832Z,92.61
2019-03-18T01:16:29.433Z,92.99
2019-03-18T01:16:30.031Z,92.71
2019-03-18T01:16:30.629Z,92.90
2019-03-18T01:17:25.132Z,92.61
2019-03-18T01:17:25.707Z,93.04
2019-03-18T01:17:26.305Z,92.61
2019-03-18T01:17:26.923Z,92.61
2019-03-18T01:17:27.505Z,92.66
2019-03-18T01:17:28.106Z,92.52
2019-03-18T01:17:28.724Z,93.18
2019-03-18T01:17:29.305Z,93.04
2019-03-18T01:18:23.808Z,92.90
2019-03-18T01:18:24.381Z,93.13
2019-03-18T01:18:24.981Z,93.08
2019-03-18T01:18:25.581Z,92.33
2019-03-18T01:18:26.182Z,92.23
2019-03-18T01:18:26.782Z,92.42
2019-03-18T01:18:27.383Z,93.08
2019-03-18T01:18:27.985Z,92.42
2019-03-18T01:19:22.483Z,92.80
2019-03-18T01:19:23.059Z,92.61
2019-03-18T01:19:23.656Z,92.80
2019-03-18T01:19:24.257Z,92.42
2019-03-18T01:19:24.859Z,92.61
2019-03-18T01:19:25.460Z,92.80
2019-03-18T01:19:26.056Z,92.94
2019-03-18T01:19:26.656Z,92.56
2019-03-18T01:20:20.135Z,92.99
2019-03-18T01:20:20.709Z,92.90
2019-03-18T01:20:21.309Z,93.08
2019-03-18T01:20:21.911Z,92.99
2019-03-18T01:20:22.509Z,92.90
2019-03-18T01:20:23.112Z,93.18
2019-03-18T01:20:23.709Z,92.71
2019-03-18T01:20:24.309Z,93.08
2019-03-18T01:21:18.811Z,92.52
2019-03-18T01:21:19.384Z,92.99
2019-03-18T01:21:19.987Z,93.08
2019-03-18T01:21:20.586Z,93.18
2019-03-18T01:21:21.183Z,93.08
2019-03-18T01:21:21.793Z,93.08
2019-03-18T01:21:22.387Z,92.99
2019-03-18T01:21:22.984Z,93.08
2019-03-18T01:22:16.465Z,93.08
2019-03-18T01:22:17.039Z,93.37
2019-03-18T01:22:17.638Z,93.08
2019-03-18T01:22:18.238Z,92.80
2019-03-18T01:22:18.839Z,93.18
2019-03-18T01:22:19.437Z,93.08
2019-03-18T01:22:20.037Z,93.08
2019-03-18T01:22:20.636Z,93.23
2019-03-18T01:23:15.139Z,93.08
2019-03-18T01:23:15.712Z,93.08
2019-03-18T01:23:16.315Z,93.18
2019-03-18T01:23:16.922Z,93.37
2019-03-18T01:23:17.512Z,93.41
2019-03-18T01:23:18.114Z,93.18
2019-03-18T01:23:18.711Z,93.37
2019-03-18T01:23:19.312Z,93.08
2019-03-18T01:24:13.815Z,92.90
2019-03-18T01:24:14.388Z,93.08
2019-03-18T01:24:14.987Z,92.99
2019-03-18T01:24:15.588Z,92.99
2019-03-18T01:24:16.187Z,92.99
2019-03-18T01:24:16.786Z,93.08
2019-03-18T01:24:17.386Z,92.80
2019-03-18T01:24:17.987Z,92.90
2019-03-18T01:25:11.467Z,92.90
2019-03-18T01:25:12.041Z,92.90
2019-03-18T01:25:12.638Z,93.46
2019-03-18T01:25:13.240Z,92.90
2019-03-18T01:25:13.896Z,93.56
2019-03-18T01:25:14.446Z,92.80
2019-03-18T01:25:15.038Z,92.90
2019-03-18T01:25:15.641Z,93.08
2019-03-18T01:26:10.142Z,93.84
2019-03-18T01:26:10.714Z,93.08
2019-03-18T01:26:11.317Z,93.27
2019-03-18T01:26:11.917Z,93.65
2019-03-18T01:26:12.516Z,93.80
2019-03-18T01:26:13.115Z,93.41
2019-03-18T01:26:13.715Z,93.56
2019-03-18T01:26:14.315Z,93.27
2019-03-18T01:27:07.797Z,93.08
2019-03-18T01:27:08.366Z,93.13
2019-03-18T01:27:08.966Z,93.13
2019-03-18T01:27:09.566Z,93.04
2019-03-18T01:27:10.165Z,92.99
2019-03-18T01:27:10.766Z,93.08
2019-03-18T01:27:11.365Z,92.99
2019-03-18T01:27:11.969Z,93.08
2019-03-18T01:28:05.445Z,94.42
2019-03-18T01:28:06.020Z,94.03
2019-03-18T01:28:06.627Z,94.51
2019-03-18T01:28:07.219Z,94.03
2019-03-18T01:28:07.819Z,94.56
2019-03-18T01:28:08.420Z,94.65
2019-03-18T01:28:09.022Z,94.74
2019-03-18T01:28:09.620Z,94.51
2019-03-18T01:29:03.098Z,94.79
2019-03-18T01:29:03.674Z,94.93
2019-03-18T01:29:04.271Z,94.89
2019-03-18T01:29:04.870Z,94.89
2019-03-18T01:29:05.470Z,94.51
2019-03-18T01:29:06.070Z,94.32
2019-03-18T01:29:06.670Z,94.51
2019-03-18T01:29:07.270Z,94.32
2019-03-18T01:30:01.783Z,94.70
2019-03-18T01:30:02.346Z,94.32
2019-03-18T01:30:02.946Z,94.37
2019-03-18T01:30:03.549Z,94.74
2019-03-18T01:30:04.147Z,94.32
2019-03-18T01:30:04.822Z,94.51
2019-03-18T01:30:05.345Z,94.32
2019-03-18T01:30:05.948Z,94.32
2019-03-18T01:30:59.425Z,94.70
2019-03-18T01:31:00.005Z,94.89
2019-03-18T01:31:00.598Z,94.89
2019-03-18T01:31:01.199Z,94.70
2019-03-18T01:31:01.799Z,94.60
2019-03-18T01:31:02.398Z,94.60
2019-03-18T01:31:02.998Z,94.70
2019-03-18T01:31:03.606Z,94.89
2019-03-18T01:31:58.100Z,95.55
2019-03-18T01:31:58.674Z,95.46
2019-03-18T01:31:59.277Z,95.46
2019-03-18T01:31:59.874Z,95.55
2019-03-18T01:32:00.477Z,95.55
2019-03-18T01:32:01.073Z,95.46
2019-03-18T01:32:01.672Z,95.27
2019-03-18T01:32:02.272Z,95.27
2019-03-18T01:32:55.753Z,94.98
2019-03-18T01:32:56.325Z,94.89
2019-03-18T01:32:56.925Z,94.98
2019-03-18T01:32:57.525Z,94.79
2019-03-18T01:32:58.126Z,94.79
2019-03-18T01:32:58.725Z,94.51
2019-03-18T01:32:59.323Z,94.42
2019-03-18T01:32:59.928Z,94.89
2019-03-18T01:33:53.404Z,94.51
2019-03-18T01:33:53.978Z,94.32
2019-03-18T01:33:54.578Z,94.42
2019-03-18T01:33:55.178Z,94.32
2019-03-18T01:33:55.779Z,94.51
2019-03-18T01:33:56.377Z,94.32
2019-03-18T01:33:56.978Z,94.32
2019-03-18T01:33:57.580Z,94.60
2019-03-18T01:34:52.083Z,94.42
2019-03-18T01:34:52.659Z,94.13
2019-03-18T01:34:53.253Z,94.23
2019-03-18T01:34:53.853Z,94.42
2019-03-18T01:34:54.455Z,94.32
2019-03-18T01:34:55.052Z,94.60
2019-03-18T01:34:55.652Z,94.32
2019-03-18T01:34:56.251Z,94.51
2019-03-18T01:35:49.731Z,92.90
2019-03-18T01:35:50.305Z,92.80
2019-03-18T01:35:50.905Z,92.80
2019-03-18T01:35:51.504Z,92.99
2019-03-18T01:35:52.107Z,92.99
2019-03-18T01:35:52.704Z,92.90
2019-03-18T01:35:53.304Z,93.08
2019-03-18T01:35:53.905Z,93.08
2019-03-18T01:36:47.402Z,93.84
2019-03-18T01:36:47.957Z,93.65
2019-03-18T01:36:48.560Z,93.56
2019-03-18T01:36:49.156Z,93.65
2019-03-18T01:36:49.757Z,93.56
2019-03-18T01:36:50.361Z,93.65
2019-03-18T01:36:50.956Z,93.65
2019-03-18T01:36:51.555Z,93.56
2019-03-18T01:37:45.036Z,93.56
2019-03-18T01:37:45.608Z,93.37
2019-03-18T01:37:46.210Z,93.37
2019-03-18T01:37:46.817Z,93.56
2019-03-18T01:37:47.408Z,93.37
2019-03-18T01:37:48.011Z,93.65
2019-03-18T01:37:48.606Z,93.84
2019-03-18T01:37:49.209Z,93.56
2019-03-18T01:38:42.687Z,93.27
2019-03-18T01:38:43.259Z,93.08
2019-03-18T01:38:43.861Z,93.46
2019-03-18T01:38:44.459Z,93.08
2019-03-18T01:38:45.063Z,92.99
2019-03-18T01:38:45.658Z,93.27
2019-03-18T01:38:46.260Z,93.18
2019-03-18T01:38:46.859Z,93.37
2019-03-18T01:39:41.361Z,93.75
2019-03-18T01:39:41.935Z,93.75
2019-03-18T01:39:42.539Z,93.75
2019-03-18T01:39:43.140Z,93.37
2019-03-18T01:39:43.736Z,93.37
2019-03-18T01:39:44.334Z,93.37
2019-03-18T01:39:44.934Z,93.75
2019-03-18T01:39:45.534Z,93.46
2019-03-18T01:40:39.014Z,93.27
2019-03-18T01:40:39.587Z,93.27
2019-03-18T01:40:40.191Z,93.18
2019-03-18T01:40:40.785Z,93.27
2019-03-18T01:40:41.387Z,93.27
2019-03-18T01:40:41.986Z,93.18
2019-03-18T01:40:42.590Z,93.27
2019-03-18T01:40:43.186Z,93.46
2019-03-18T01:41:37.689Z,92.90
2019-03-18T01:41:38.263Z,92.99
2019-03-18T01:41:38.864Z,93.27
2019-03-18T01:41:39.462Z,93.27
2019-03-18T01:41:40.064Z,93.18
2019-03-18T01:41:40.663Z,92.99
2019-03-18T01:41:41.262Z,93.37
2019-03-18T01:41:41.862Z,93.27
2019-03-18T01:42:35.341Z,93.75
2019-03-18T01:42:35.915Z,93.75
2019-03-18T01:42:36.515Z,93.65
2019-03-18T01:42:37.118Z,93.27
2019-03-18T01:42:37.712Z,93.65
2019-03-18T01:42:38.314Z,93.37
2019-03-18T01:42:38.945Z,93.84
2019-03-18T01:42:39.516Z,93.84
2019-03-18T01:43:34.020Z,92.99
2019-03-18T01:43:34.590Z,92.99
2019-03-18T01:43:35.190Z,92.99
2019-03-18T01:43:35.790Z,92.99
2019-03-18T01:43:36.390Z,92.80
2019-03-18T01:43:36.989Z,92.90
2019-03-18T01:43:37.593Z,92.80
2019-03-18T01:43:38.189Z,92.90
2019-03-18T01:44:32.692Z,92.90
2019-03-18T01:44:33.266Z,93.08
2019-03-18T01:44:33.867Z,93.08
2019-03-18T01:44:34.465Z,93.08
2019-03-18T01:44:35.068Z,92.99
2019-03-18T01:44:35.686Z,92.99
2019-03-18T01:44:36.263Z,92.99
2019-03-18T01:44:36.867Z,92.99
2019-03-18T01:45:40.084Z,92.33
2019-03-18T01:45:40.231Z,92.47
2019-03-18T01:45:40.587Z,92.42
2019-03-18T01:45:40.658Z,92.33
2019-03-18T01:45:40.678Z,92.42
2019-03-18T01:45:40.681Z,92.23
2019-03-18T01:45:40.698Z,92.33
2019-03-18T01:45:40.787Z,92.37
2019-03-18T01:46:27.996Z,91.75
2019-03-18T01:46:28.568Z,92.18
2019-03-18T01:46:29.175Z,91.85
2019-03-18T01:46:29.769Z,91.94
2019-03-18T01:46:30.375Z,91.85
2019-03-18T01:46:30.968Z,92.04
2019-03-18T01:46:31.571Z,92.04
2019-03-18T01:46:32.169Z,92.04
2019-03-18T01:47:25.647Z,91.19
2019-03-18T01:47:26.221Z,91.19
2019-03-18T01:47:26.822Z,91.28
2019-03-18T01:47:27.420Z,91.09
2019-03-18T01:47:28.025Z,91.19
2019-03-18T01:47:28.620Z,91.38
2019-03-18T01:47:29.219Z,91.19
2019-03-18T01:47:29.820Z,91.19
2019-03-18T01:48:24.325Z,91.09
2019-03-18T01:48:24.895Z,91.47
2019-03-18T01:48:25.495Z,91.28
2019-03-18T01:48:26.100Z,91.28
2019-03-18T01:48:26.696Z,90.33
2019-03-18T01:48:27.295Z,90.71
2019-03-18T01:48:27.895Z,91.38
2019-03-18T01:48:28.496Z,90.52
2019-03-18T01:49:21.974Z,89.86
2019-03-18T01:49:22.548Z,89.67
2019-03-18T01:49:23.149Z,89.86
2019-03-18T01:49:23.752Z,89.95
2019-03-18T01:49:24.354Z,89.86
2019-03-18T01:49:24.949Z,89.86
2019-03-18T01:49:25.550Z,89.86
2019-03-18T01:49:26.148Z,89.67
2019-03-18T01:50:20.650Z,89.10
2019-03-18T01:50:21.227Z,88.62
2019-03-18T01:50:21.825Z,88.53
2019-03-18T01:50:22.423Z,88.53
2019-03-18T01:50:23.024Z,88.81
2019-03-18T01:50:23.628Z,88.72
2019-03-18T01:50:24.223Z,89.00
2019-03-18T01:50:24.826Z,88.72
2019-03-18T01:51:18.302Z,87.30
2019-03-18T01:51:18.876Z,87.30
2019-03-18T01:51:19.481Z,87.39
2019-03-18T01:51:20.080Z,87.30
2019-03-18T01:51:20.677Z,87.30
2019-03-18T01:51:21.275Z,87.30
2019-03-18T01:51:21.877Z,87.39
2019-03-18T01:51:22.476Z,87.30
2019-03-18T01:52:15.954Z,86.54
2019-03-18T01:52:16.529Z,86.54
2019-03-18T01:52:17.144Z,86.63
2019-03-18T01:52:17.728Z,86.91
2019-03-18T01:52:18.327Z,86.54
2019-03-18T01:52:18.927Z,86.72
2019-03-18T01:52:19.527Z,86.63
2019-03-18T01:52:20.128Z,86.63
2019-03-18T01:53:14.629Z,87.39
2019-03-18T01:53:15.203Z,87.30
2019-03-18T01:53:15.803Z,87.11
2019-03-18T01:53:16.403Z,87.20
2019-03-18T01:53:17.004Z,87.77
2019-03-18T01:53:17.602Z,87.77
2019-03-18T01:53:18.202Z,87.87
2019-03-18T01:53:18.804Z,87.77
2019-03-18T01:54:13.305Z,87.68
2019-03-18T01:54:13.878Z,87.68
2019-03-18T01:54:14.478Z,87.58
2019-03-18T01:54:15.078Z,87.68
2019-03-18T01:54:15.677Z,87.39
2019-03-18T01:54:16.278Z,87.68
2019-03-18T01:54:16.878Z,87.39
2019-03-18T01:54:17.479Z,87.39
2019-03-18T01:55:11.980Z,87.11
2019-03-18T01:55:12.556Z,86.91
2019-03-18T01:55:13.155Z,87.11
2019-03-18T01:55:13.754Z,87.11
2019-03-18T01:55:14.359Z,86.82
2019-03-18T01:55:14.954Z,86.25
2019-03-18T01:55:15.553Z,86.44
2019-03-18T01:55:16.154Z,86.63
2019-03-18T01:56:10.657Z,85.97
2019-03-18T01:56:11.231Z,85.97
2019-03-18T01:56:11.829Z,85.97
2019-03-18T01:56:12.430Z,86.07
2019-03-18T01:56:13.029Z,85.97
2019-03-18T01:56:13.629Z,86.07
2019-03-18T01:56:14.227Z,85.97
2019-03-18T01:56:14.831Z,85.97
2019-03-18T01:57:09.332Z,86.25
2019-03-18T01:57:09.907Z,86.07
2019-03-18T01:57:10.506Z,86.07
2019-03-18T01:57:11.123Z,86.16
2019-03-18T01:57:11.708Z,86.25
2019-03-18T01:57:12.307Z,86.35
2019-03-18T01:57:12.904Z,86.35
2019-03-18T01:57:13.510Z,86.25
2019-03-18T01:58:06.985Z,84.92
2019-03-18T01:58:07.558Z,84.83
2019-03-18T01:58:08.163Z,84.64
2019-03-18T01:58:08.759Z,84.64
2019-03-18T01:58:09.359Z,84.55
2019-03-18T01:58:09.958Z,84.74
2019-03-18T01:58:10.557Z,84.92
2019-03-18T01:58:11.159Z,84.83
2019-03-18T01:59:16.309Z,84.83
2019-03-18T01:59:16.884Z,85.02
2019-03-18T01:59:17.485Z,85.02
2019-03-18T01:59:18.084Z,85.02
2019-03-18T01:59:18.686Z,85.21
2019-03-18T01:59:19.284Z,84.92
2019-03-18T01:59:19.884Z,85.02
2019-03-18T01:59:20.483Z,85.02
2019-03-18T02:00:13.974Z,84.26
2019-03-18T02:00:14.535Z,83.78
2019-03-18T02:00:15.144Z,84.17
2019-03-18T02:00:15.735Z,84.26
2019-03-18T02:00:16.348Z,84.36
2019-03-18T02:00:16.935Z,83.97
2019-03-18T02:00:17.535Z,83.78
2019-03-18T02:00:18.136Z,83.78
2019-03-18T02:01:12.638Z,83.88
2019-03-18T02:01:13.211Z,84.17
2019-03-18T02:01:13.810Z,83.88
2019-03-18T02:01:14.410Z,83.88
2019-03-18T02:01:15.010Z,84.17
2019-03-18T02:01:15.609Z,83.78
2019-03-18T02:01:16.209Z,84.17
2019-03-18T02:01:16.810Z,83.88
2019-03-18T02:02:10.290Z,83.78
2019-03-18T02:02:10.862Z,84.17
2019-03-18T02:02:11.479Z,83.97
2019-03-18T02:02:12.063Z,83.88
2019-03-18T02:02:12.662Z,83.88
2019-03-18T02:02:13.273Z,84.07
2019-03-18T02:02:13.870Z,83.97
2019-03-18T02:02:14.462Z,84.17